createdAt,value
2019-03-27T00:01:40.814Z,-6.21
2019-03-27T00:05:44.273Z,-6.32
2019-03-27T00:09:47.855Z,-6.37
2019-03-27T00:13:51.646Z,-6.36
2019-03-27T00:17:55.501Z,-6.35
2019-03-27T00:21:59.288Z,-6.45
2019-03-27T00:26:02.778Z,-6.38
2019-03-27T00:30:06.693Z,-6.44
2019-03-27T00:34:10.372Z,-6.38
2019-03-27T00:38:13.821Z,-6.20
2019-03-27T00:42:17.400Z,-6.04
2019-03-27T00:46:20.824Z,-6.05
2019-03-27T00:50:24.367Z,-6.25
2019-03-27T00:54:27.816Z,-6.29
2019-03-27T00:58:31.414Z,-6.11
2019-03-27T01:02:35.090Z,-6.01
2019-03-27T01:06:38.654Z,-6.07
2019-03-27T01:10:42.071Z,-6.01
2019-03-27T01:14:45.765Z,-6.02
2019-03-27T01:18:49.308Z,-5.98
2019-03-27T01:22:52.959Z,-5.99
2019-03-27T01:26:57.383Z,-6.15
2019-03-27T01:31:01.128Z,-6.31
2019-03-27T01:35:04.980Z,-6.31
2019-03-27T01:39:10.020Z,-6.27
2019-03-27T01:43:13.528Z,-6.30
2019-03-27T01:47:17.117Z,-6.51
2019-03-27T01:51:20.555Z,-6.62
2019-03-27T01:55:24.158Z,-6.68
2019-03-27T01:59:27.688Z,-6.81
2019-03-27T02:03:31.510Z,-6.95
2019-03-27T02:07:35.016Z,-7.12
2019-03-27T02:11:39.513Z,-7.29
2019-03-27T02:15:42.985Z,-7.39
2019-03-27T02:19:46.521Z,-7.44
2019-03-27T02:23:50.076Z,-7.41
2019-03-27T02:27:53.667Z,-7.41
2019-03-27T02:31:59.544Z,-7.52
2019-03-27T02:36:03.242Z,-7.46
2019-03-27T02:40:07.362Z,-7.40
2019-03-27T02:44:10.990Z,-7.47
2019-03-27T02:48:14.997Z,-7.61
2019-03-27T02:52:19.951Z,-7.77
2019-03-27T02:56:23.370Z,-7.86
2019-03-27T03:00:27.153Z,-7.95
2019-03-27T03:04:30.759Z,-7.98
2019-03-27T03:08:34.416Z,-8.07
2019-03-27T03:12:38.062Z,-8.09
2019-03-27T03:16:43.433Z,-8.00
2019-03-27T03:20:47.073Z,-7.95
2019-03-27T03:24:50.939Z,-7.95
2019-03-27T03:28:55.447Z,-8.06
2019-03-27T03:32:59.948Z,-8.04
2019-03-27T03:37:03.563Z,-8.14
2019-03-27T03:41:07.368Z,-8.21
2019-03-27T03:45:11.244Z,-8.29
2019-03-27T03:49:14.752Z,-8.38
2019-03-27T03:53:18.479Z,-8.39
2019-03-27T03:57:25.392Z,-8.41
2019-03-27T04:01:31.327Z,-8.46
2019-03-27T04:05:34.943Z,-8.39
2019-03-27T04:09:38.563Z,-8.45
2019-03-27T04:13:42.295Z,-8.60
2019-03-27T04:17:45.921Z,-8.57
2019-03-27T04:21:49.538Z,-8.57
2019-03-27T04:26:09.070Z,-8.66
2019-03-27T04:29:58.340Z,-8.69
2019-03-27T04:34:01.877Z,-8.62
2019-03-27T04:38:05.493Z,-8.60
2019-03-27T04:42:08.969Z,-8.54
2019-03-27T04:46:12.555Z,-8.48
2019-03-27T04:50:16.233Z,-8.47
2019-03-27T04:54:19.749Z,-8.35
2019-03-27T04:58:23.243Z,-8.16
2019-03-27T05:02:27.011Z,-7.97
2019-03-27T05:06:30.704Z,-7.85
2019-03-27T05:10:34.294Z,-7.69
2019-03-27T05:14:37.803Z,-7.51
2019-03-27T05:18:41.295Z,-7.34
2019-03-27T05:22:44.896Z,-7.03
2019-03-27T05:26:48.507Z,-6.64
2019-03-27T05:30:52.037Z,-6.34
2019-03-27T05:34:55.891Z,-5.93
2019-03-27T05:38:59.360Z,-5.74
2019-03-27T05:43:03.056Z,-5.43
2019-03-27T05:47:06.553Z,-5.15
2019-03-27T05:51:10.181Z,-4.69
2019-03-27T05:55:13.711Z,-4.27
2019-03-27T05:59:17.259Z,-3.86
2019-03-27T06:03:20.710Z,-3.80
2019-03-27T06:07:24.316Z,-3.79
2019-03-27T06:11:27.873Z,-3.36
2019-03-27T06:15:31.539Z,-2.64
2019-03-27T06:19:35.062Z,-2.21
2019-03-27T06:23:38.735Z,-2.41
2019-03-27T06:27:42.301Z,-2.70
2019-03-27T06:31:45.893Z,-2.51
2019-03-27T06:35:49.423Z,-2.30
2019-03-27T06:39:53.043Z,-2.33
2019-03-27T06:43:56.569Z,-2.37
2019-03-27T06:48:00.114Z,-1.77
2019-03-27T06:52:03.561Z,-1.26
2019-03-27T06:56:07.012Z,-1.05
2019-03-27T07:00:12.526Z,-0.71
2019-03-27T07:04:16.992Z,-0.09
2019-03-27T07:08:20.473Z,0.21
2019-03-27T07:12:25.618Z,0.18
2019-03-27T07:16:29.193Z,0.27
2019-03-27T07:20:32.788Z,0.18
2019-03-27T07:24:36.444Z,0.06
2019-03-27T07:28:39.900Z,0.13
2019-03-27T07:32:43.386Z,0.16
2019-03-27T07:36:46.964Z,0.40
2019-03-27T07:40:50.429Z,0.43
2019-03-27T07:44:54.363Z,0.76
2019-03-27T07:48:58.182Z,1.13
2019-03-27T07:53:01.852Z,1.04
2019-03-27T07:57:05.521Z,1.34
2019-03-27T08:01:09.024Z,1.38
2019-03-27T08:05:12.700Z,1.46
2019-03-27T08:09:16.320Z,1.31
2019-03-27T08:13:19.806Z,1.26
2019-03-27T08:17:23.784Z,1.18
2019-03-27T08:21:27.235Z,1.32
2019-03-27T08:25:30.944Z,1.67
2019-03-27T08:29:34.577Z,1.83
2019-03-27T08:33:38.271Z,2.11
2019-03-27T08:37:41.711Z,2.36
2019-03-27T08:41:45.387Z,2.63
2019-03-27T08:45:49.781Z,2.56
2019-03-27T08:49:53.444Z,2.46
2019-03-27T08:53:57.057Z,1.81
2019-03-27T08:58:00.745Z,1.90
2019-03-27T09:02:04.294Z,2.17
2019-03-27T09:06:07.873Z,2.50
2019-03-27T09:10:12.072Z,2.58
2019-03-27T09:14:15.556Z,2.42
2019-03-27T09:18:20.807Z,2.54
2019-03-27T09:22:24.542Z,2.60
2019-03-27T09:26:28.038Z,2.75
2019-03-27T09:30:31.872Z,2.72
2019-03-27T09:34:35.482Z,2.98
2019-03-27T09:38:39.159Z,3.22
2019-03-27T09:42:42.725Z,3.14
2019-03-27T09:46:46.359Z,3.24
2019-03-27T09:50:50.818Z,3.46
2019-03-27T09:54:54.405Z,3.25
2019-03-27T09:58:58.237Z,3.44
2019-03-27T10:03:02.418Z,3.43
2019-03-27T10:07:06.090Z,3.63
2019-03-27T10:11:09.689Z,3.80
2019-03-27T10:15:15.098Z,4.21
2019-03-27T10:19:20.335Z,4.40
2019-03-27T10:23:24.840Z,4.53
2019-03-27T10:27:28.502Z,4.91
2019-03-27T10:31:32.190Z,4.81
2019-03-27T10:35:35.882Z,4.82
2019-03-27T10:39:39.434Z,4.81
2019-03-27T10:43:43.364Z,4.75
2019-03-27T10:47:46.832Z,4.23
2019-03-27T10:51:50.420Z,4.33
2019-03-27T10:55:54.018Z,4.66
2019-03-27T10:59:57.657Z,4.94
2019-03-27T11:04:00.966Z,5.01
2019-03-27T11:08:04.468Z,4.99
2019-03-27T11:12:07.935Z,4.70
2019-03-27T11:16:11.418Z,4.69
2019-03-27T11:20:16.223Z,4.70
2019-03-27T11:24:20.115Z,4.71
2019-03-27T11:28:23.461Z,4.67
2019-03-27T11:32:27.008Z,4.63
2019-03-27T11:36:30.258Z,4.62
2019-03-27T11:40:33.633Z,4.54
2019-03-27T11:44:37.013Z,4.75
2019-03-27T11:48:40.384Z,4.75
2019-03-27T11:52:43.693Z,4.30
2019-03-27T11:56:47.688Z,4.30
2019-03-27T12:00:54.750Z,4.54
2019-03-27T12:04:56.238Z,4.69
2019-03-27T12:09:00.426Z,4.87
2019-03-27T12:13:05.289Z,4.93
2019-03-27T12:17:08.808Z,4.79
2019-03-27T12:21:12.135Z,5.21
2019-03-27T12:25:15.910Z,5.60
2019-03-27T12:29:20.346Z,5.71
2019-03-27T12:33:23.875Z,6.14
2019-03-27T12:37:28.057Z,6.28
2019-03-27T12:46:47.047Z,5.65
2019-03-27T12:50:56.535Z,5.35
2019-03-27T12:55:00.380Z,5.18
2019-03-27T12:59:03.969Z,5.34
2019-03-27T13:03:08.155Z,5.50
2019-03-27T13:07:11.862Z,5.30
2019-03-27T13:11:15.571Z,5.29
2019-03-27T13:15:19.176Z,5.08
2019-03-27T13:19:23.087Z,5.00
2019-03-27T13:23:26.516Z,4.70
2019-03-27T13:27:29.854Z,4.56
2019-03-27T13:31:33.303Z,4.82
2019-03-27T13:35:36.856Z,4.80
2019-03-27T13:39:40.310Z,4.74
2019-03-27T13:43:43.974Z,4.67
2019-03-27T13:47:48.418Z,4.53
2019-03-27T13:51:52.053Z,4.28
2019-03-27T13:55:56.455Z,4.54
2019-03-27T14:00:00.282Z,4.64
2019-03-27T14:04:03.703Z,4.63
2019-03-27T14:08:07.387Z,4.35
2019-03-27T14:12:10.647Z,3.95
2019-03-27T14:16:14.117Z,3.85
2019-03-27T14:20:17.727Z,3.83
2019-03-27T14:24:21.331Z,4.03
2019-03-27T14:28:24.792Z,4.21
2019-03-27T14:32:29.851Z,4.20
2019-03-27T14:36:34.376Z,4.22
2019-03-27T14:40:38.317Z,4.22
2019-03-27T14:44:41.774Z,4.28
2019-03-27T14:48:45.513Z,4.02
2019-03-27T14:52:49.286Z,3.85
2019-03-27T14:56:53.183Z,3.69
2019-03-27T15:00:56.619Z,3.51
2019-03-27T15:05:00.339Z,3.44
2019-03-27T15:09:04.973Z,3.41
2019-03-27T15:13:09.247Z,3.38
2019-03-27T15:17:12.749Z,3.35
2019-03-27T15:21:18.142Z,3.28
2019-03-27T15:25:21.566Z,3.26
2019-03-27T15:29:24.963Z,3.22
2019-03-27T15:33:28.402Z,3.20
2019-03-27T15:37:31.754Z,3.17
2019-03-27T15:41:36.089Z,3.14
2019-03-27T15:45:39.450Z,3.05
2019-03-27T15:49:42.700Z,3.03
2019-03-27T15:53:47.431Z,2.95
2019-03-27T15:57:51.088Z,2.84
2019-03-27T16:01:57.749Z,2.77
2019-03-27T16:05:59.809Z,2.74
2019-03-27T16:10:03.447Z,2.61
2019-03-27T16:14:06.832Z,2.48
2019-03-27T16:18:10.494Z,2.35
2019-03-27T16:22:13.799Z,2.20
2019-03-27T16:26:17.408Z,2.05
2019-03-27T16:30:21.233Z,1.90
2019-03-27T16:34:25.401Z,1.78
2019-03-27T16:38:32.167Z,1.68
2019-03-27T16:42:36.984Z,1.61
2019-03-27T16:46:40.590Z,1.55
2019-03-27T16:50:45.066Z,1.45
2019-03-27T16:54:49.915Z,1.32
2019-03-27T16:58:54.363Z,1.23
2019-03-27T17:02:58.102Z,1.12
2019-03-27T17:07:01.865Z,1.03
2019-03-27T17:11:07.401Z,1.01
2019-03-27T17:15:12.684Z,0.97
2019-03-27T17:19:16.196Z,0.88
2019-03-27T17:23:19.778Z,0.73
2019-03-27T17:27:23.387Z,0.71
2019-03-27T17:31:27.008Z,0.57
2019-03-27T17:35:30.764Z,0.56
2019-03-27T17:39:34.789Z,0.59
2019-03-27T17:43:38.476Z,0.76
2019-03-27T17:47:42.055Z,0.87
2019-03-27T17:51:45.532Z,0.93
2019-03-27T17:55:49.182Z,1.04
2019-03-27T17:59:52.637Z,1.07
2019-03-27T18:03:56.293Z,1.07
2019-03-27T18:08:00.162Z,1.08
2019-03-27T18:12:03.840Z,1.07
2019-03-27T18:16:07.435Z,1.07
2019-03-27T18:20:11.505Z,1.06
2019-03-27T18:24:15.079Z,1.02
2019-03-27T18:28:18.818Z,0.94
2019-03-27T18:32:22.334Z,0.76
2019-03-27T18:36:25.864Z,0.57
2019-03-27T18:40:29.750Z,0.36
2019-03-27T18:44:33.310Z,0.16
2019-03-27T18:48:36.756Z,0.21
2019-03-27T18:52:40.375Z,0.37
2019-03-27T18:56:44.736Z,0.48
2019-03-27T19:00:48.250Z,0.51
2019-03-27T19:04:51.803Z,0.59
2019-03-27T19:08:56.727Z,0.65
2019-03-27T19:13:00.229Z,0.76
2019-03-27T19:17:03.895Z,0.81
2019-03-27T19:21:07.459Z,0.82
2019-03-27T19:25:11.289Z,0.76
2019-03-27T19:29:14.837Z,0.74
2019-03-27T19:33:18.576Z,0.71
2019-03-27T19:37:21.948Z,0.65
2019-03-27T19:41:25.623Z,0.62
2019-03-27T19:45:29.320Z,0.55
2019-03-27T19:49:33.032Z,0.46
2019-03-27T19:53:37.088Z,0.42
2019-03-27T19:57:40.723Z,0.39
2019-03-27T20:01:44.176Z,0.38
2019-03-27T20:05:47.712Z,0.36
2019-03-27T20:09:51.231Z,0.34
2019-03-27T20:13:54.854Z,0.34
2019-03-27T20:17:58.472Z,0.29
2019-03-27T20:22:01.989Z,0.23
2019-03-27T20:26:05.582Z,0.19
2019-03-27T20:30:11.837Z,0.18
2019-03-27T20:34:15.467Z,0.13
2019-03-27T20:38:19.095Z,0.19
2019-03-27T20:42:22.766Z,0.23
2019-03-27T20:46:29.287Z,0.16
2019-03-27T20:50:31.814Z,0.03
2019-03-27T20:54:35.342Z,-0.09
2019-03-27T20:58:39.056Z,-0.26
2019-03-27T21:02:42.974Z,-0.44
2019-03-27T21:06:46.599Z,-0.62
2019-03-27T21:10:50.126Z,-0.78
2019-03-27T21:14:53.709Z,-0.93
2019-03-27T21:18:57.360Z,-1.18
2019-03-27T21:23:00.870Z,-1.22
2019-03-27T21:27:04.503Z,-1.24
2019-03-27T21:31:08.010Z,-1.31
2019-03-27T21:35:11.738Z,-1.32
2019-03-27T21:39:15.415Z,-1.38
2019-03-27T21:43:19.210Z,-1.31
2019-03-27T21:47:22.993Z,-1.29
2019-03-27T21:51:26.560Z,-1.42
2019-03-27T21:55:42.189Z,-1.50
2019-03-27T21:59:35.139Z,-1.60
2019-03-27T22:03:38.646Z,-1.73
2019-03-27T22:07:42.309Z,-1.72
2019-03-27T22:11:45.765Z,-1.79
2019-03-27T22:15:49.341Z,-1.88
2019-03-27T22:19:52.790Z,-1.83
2019-03-27T22:23:56.703Z,-1.81
2019-03-27T22:28:00.374Z,-1.86
2019-03-27T22:32:04.032Z,-1.95
2019-03-27T22:36:07.506Z,-2.04
2019-03-27T22:40:11.274Z,-2.14
2019-03-27T22:44:15.029Z,-2.20
2019-03-27T22:48:20.042Z,-2.25
2019-03-27T22:52:23.546Z,-2.28
2019-03-27T22:56:28.237Z,-2.33
2019-03-27T23:00:40.509Z,-2.38
2019-03-27T23:04:45.675Z,-2.46
2019-03-27T23:08:49.137Z,-2.41
2019-03-27T23:12:53.022Z,-2.47
2019-03-27T23:16:56.481Z,-2.42
2019-03-27T23:21:00.887Z,-2.42
2019-03-27T23:25:04.678Z,-2.42
2019-03-27T23:29:08.350Z,-2.42
2019-03-27T23:33:11.902Z,-2.61
2019-03-27T23:37:15.665Z,-2.55
2019-03-27T23:41:19.186Z,-2.47
2019-03-27T23:45:22.870Z,-2.34
2019-03-27T23:49:26.404Z,-2.39
2019-03-27T23:53:30.007Z,-2.51
2019-03-27T23:57:33.730Z,-2.55
